createdAt,value
2018-03-28T00:00:07.069Z,92.90
2018-03-28T00:02:33.059Z,93.00
2018-03-28T00:04:59.024Z,92.70
2018-03-28T00:07:24.974Z,92.60
2018-03-28T00:09:51.122Z,92.80
2018-03-28T00:12:17.125Z,93.00
2018-03-28T00:14:50.105Z,93.30
2018-03-28T00:17:16.093Z,93.50
2018-03-28T00:19:42.050Z,93.50
2018-03-28T00:22:08.783Z,93.70
2018-03-28T00:24:34.744Z,93.70
2018-03-28T00:27:01.528Z,93.60
2018-03-28T00:29:27.452Z,93.60
2018-03-28T00:31:53.420Z,93.50
2018-03-28T00:34:19.416Z,93.40
2018-03-28T00:36:45.431Z,93.30
2018-03-28T00:39:12.131Z,93.50
2018-03-28T00:41:38.096Z,93.50
2018-03-28T00:44:04.087Z,93.40
2018-03-28T00:46:30.058Z,93.00
2018-03-28T00:48:56.015Z,93.00
2018-03-28T00:51:34.834Z,93.00
2018-03-28T00:54:00.791Z,93.20
2018-03-28T00:56:26.735Z,93.40
2018-03-28T00:58:53.476Z,93.60
2018-03-28T01:01:19.471Z,93.60
2018-03-28T01:03:45.472Z,93.60
2018-03-28T01:06:11.488Z,93.60
2018-03-28T01:08:37.453Z,93.60
2018-03-28T01:11:03.432Z,93.60
2018-03-28T01:13:29.412Z,93.50
2018-03-28T01:15:56.108Z,93.30
2018-03-28T01:18:22.237Z,93.30
2018-03-28T01:20:48.416Z,93.30
2018-03-28T01:23:14.400Z,93.40
2018-03-28T01:25:40.428Z,93.50
2018-03-28T01:28:06.433Z,93.70
2018-03-28T01:30:32.385Z,93.80
2018-03-28T01:32:59.093Z,93.70
2018-03-28T01:35:25.103Z,93.70
2018-03-28T01:37:51.085Z,93.60
2018-03-28T01:40:17.068Z,93.50
2018-03-28T01:42:43.050Z,93.60
2018-03-28T01:45:09.014Z,93.60
2018-03-28T01:47:34.973Z,93.70
2018-03-28T01:50:01.560Z,93.60
2018-03-28T01:52:27.532Z,93.70
2018-03-28T01:54:54.235Z,93.50
2018-03-28T01:57:20.361Z,93.60
2018-03-28T01:59:46.396Z,93.70
2018-03-28T02:02:12.357Z,93.80
2018-03-28T02:04:38.509Z,93.70
2018-03-28T02:07:04.470Z,93.80
2018-03-28T02:09:31.209Z,93.80
2018-03-28T02:11:58.143Z,93.80
2018-03-28T02:14:24.111Z,93.80
2018-03-28T02:16:50.832Z,93.70
2018-03-28T02:19:16.966Z,93.70
2018-03-28T02:21:43.020Z,93.70
2018-03-28T02:24:09.005Z,93.50
2018-03-28T02:26:35.013Z,93.60
2018-03-28T02:29:01.724Z,93.60
2018-03-28T02:31:27.710Z,93.50
2018-03-28T02:33:53.682Z,93.70
2018-03-28T02:36:19.715Z,93.80
2018-03-28T02:38:45.712Z,93.80
2018-03-28T02:41:12.620Z,93.00
2018-03-28T02:43:38.593Z,92.90
2018-03-28T02:46:05.297Z,93.50
2018-03-28T02:48:31.472Z,93.50
2018-03-28T02:50:57.437Z,93.80
2018-03-28T02:53:24.143Z,94.10
2018-03-28T02:55:50.287Z,94.10
2018-03-28T02:58:16.280Z,94.10
2018-03-28T03:00:42.233Z,94.30
2018-03-28T03:03:08.397Z,94.60
2018-03-28T03:05:34.366Z,94.80
2018-03-28T03:08:01.073Z,95.10
2018-03-28T03:10:27.225Z,95.10
2018-03-28T03:12:53.200Z,95.10
2018-03-28T03:15:19.209Z,95.00
2018-03-28T03:17:45.264Z,94.80
2018-03-28T03:20:11.969Z,94.70
2018-03-28T03:22:37.955Z,94.70
2018-03-28T03:25:04.690Z,94.50
2018-03-28T03:27:30.653Z,94.60
2018-03-28T03:29:56.617Z,95.00
2018-03-28T03:32:22.785Z,94.70
2018-03-28T03:34:48.767Z,94.70
2018-03-28T03:37:14.744Z,95.00
2018-03-28T03:39:40.737Z,95.10
2018-03-28T03:42:06.704Z,95.30
2018-03-28T03:44:32.677Z,95.60
2018-03-28T03:46:59.000Z,95.80
2018-03-28T03:49:24.974Z,95.70
2018-03-28T03:51:51.749Z,95.50
2018-03-28T03:54:17.748Z,95.50
2018-03-28T03:56:43.705Z,95.50
2018-03-28T03:59:09.664Z,95.50
2018-03-28T04:01:35.633Z,95.50
2018-03-28T04:04:01.606Z,95.30
2018-03-28T04:06:27.584Z,95.30
2018-03-28T04:08:53.673Z,95.40
2018-03-28T04:11:20.468Z,95.60
2018-03-28T04:13:46.458Z,95.50
2018-03-28T04:16:13.492Z,95.70
2018-03-28T04:18:39.448Z,95.70
2018-03-28T04:21:06.149Z,95.60
2018-03-28T04:23:32.181Z,95.50
2018-03-28T04:25:58.148Z,95.60
2018-03-28T04:28:24.104Z,95.50
2018-03-28T04:30:50.092Z,95.60
2018-03-28T04:33:16.131Z,95.80
2018-03-28T04:35:42.117Z,95.80
2018-03-28T04:38:08.821Z,96.20
2018-03-28T04:40:34.788Z,96.10
2018-03-28T04:43:00.749Z,96.10
2018-03-28T04:45:27.668Z,96.10
2018-03-28T04:47:53.644Z,96.10
2018-03-28T04:50:20.418Z,96.00
2018-03-28T04:52:46.421Z,96.00
2018-03-28T04:55:13.136Z,96.20
2018-03-28T04:57:39.125Z,96.20
2018-03-28T05:00:05.137Z,96.20
2018-03-28T05:02:31.097Z,96.00
2018-03-28T05:04:57.808Z,95.80
2018-03-28T05:07:23.797Z,95.80
2018-03-28T05:09:49.852Z,95.70
2018-03-28T05:12:15.841Z,95.30
2018-03-28T05:14:42.572Z,95.20
2018-03-28T05:17:08.550Z,95.20
2018-03-28T05:19:34.505Z,95.30
2018-03-28T05:22:00.489Z,95.50
2018-03-28T05:24:26.464Z,95.80
2018-03-28T05:26:52.456Z,95.60
2018-03-28T05:29:18.477Z,95.90
2018-03-28T05:31:44.477Z,96.20
2018-03-28T05:34:10.472Z,96.20
2018-03-28T05:36:36.445Z,96.30
2018-03-28T05:39:02.458Z,96.20
2018-03-28T05:41:29.187Z,95.80
2018-03-28T05:43:55.316Z,95.80
2018-03-28T05:46:21.292Z,95.70
2018-03-28T05:48:48.028Z,95.40
2018-03-28T05:51:14.856Z,95.40
2018-03-28T05:53:40.817Z,95.30
2018-03-28T05:56:07.522Z,94.50
2018-03-28T05:58:33.501Z,94.50
2018-03-28T06:00:59.461Z,94.30
2018-03-28T06:03:25.417Z,94.10
2018-03-28T06:05:51.711Z,93.80
2018-03-28T06:08:17.690Z,93.70
2018-03-28T06:10:43.670Z,93.50
2018-03-28T06:13:10.418Z,93.50
2018-03-28T06:15:36.389Z,93.40
2018-03-28T06:18:03.093Z,93.30
2018-03-28T06:20:29.456Z,93.30
2018-03-28T06:22:56.173Z,93.30
2018-03-28T06:25:22.138Z,93.20
2018-03-28T06:27:48.142Z,93.30
2018-03-28T06:30:14.118Z,93.20
2018-03-28T06:32:40.293Z,93.10
2018-03-28T06:35:07.724Z,92.80
2018-03-28T06:37:33.704Z,92.80
2018-03-28T06:39:59.673Z,92.40
2018-03-28T06:42:25.673Z,92.30
2018-03-28T06:44:51.686Z,92.10
2018-03-28T06:47:17.722Z,92.20
2018-03-28T06:49:43.863Z,92.30
2018-03-28T06:52:10.575Z,92.20
2018-03-28T06:54:36.544Z,92.20
2018-03-28T06:57:02.945Z,92.10
2018-03-28T06:59:28.909Z,92.00
2018-03-28T07:01:54.881Z,92.00
2018-03-28T07:04:21.683Z,91.60
2018-03-28T07:06:47.692Z,91.60
2018-03-28T07:09:13.664Z,91.50
2018-03-28T07:11:39.669Z,91.30
2018-03-28T07:14:05.656Z,91.00
2018-03-28T07:16:31.626Z,90.90
2018-03-28T07:18:57.822Z,91.10
2018-03-28T07:21:23.829Z,91.30
2018-03-28T07:23:49.837Z,91.20
2018-03-28T07:26:15.863Z,91.00
2018-03-28T07:28:41.845Z,91.20
2018-03-28T07:31:07.813Z,91.00
2018-03-28T07:33:33.841Z,90.70
2018-03-28T07:35:59.813Z,90.50
2018-03-28T07:38:25.838Z,90.30
2018-03-28T07:40:52.586Z,90.00
2018-03-28T07:43:19.316Z,89.60
2018-03-28T07:45:45.315Z,89.60
2018-03-28T07:48:11.293Z,88.20
2018-03-28T07:50:38.013Z,88.20
2018-03-28T07:53:03.978Z,88.20
2018-03-28T07:55:29.983Z,88.20
2018-03-28T07:57:55.973Z,87.00
2018-03-28T08:00:22.699Z,88.80
2018-03-28T08:02:50.212Z,88.90
2018-03-28T08:05:16.222Z,87.80
2018-03-28T08:07:42.937Z,86.90
2018-03-28T08:10:09.092Z,86.90
2018-03-28T08:12:35.045Z,86.90
2018-03-28T08:15:01.001Z,86.00
2018-03-28T08:17:27.737Z,85.20
2018-03-28T08:19:53.721Z,85.20
2018-03-28T08:22:19.762Z,83.90
2018-03-28T08:24:45.835Z,84.00
2018-03-28T08:27:11.802Z,84.20
2018-03-28T08:29:37.776Z,84.10
2018-03-28T08:32:03.748Z,83.40
2018-03-28T08:34:29.718Z,83.90
2018-03-28T08:36:55.688Z,83.30
2018-03-28T08:39:21.664Z,84.30
2018-03-28T08:41:48.399Z,83.80
2018-03-28T08:44:14.384Z,83.70
2018-03-28T08:46:40.381Z,83.00
2018-03-28T08:49:07.141Z,83.80
2018-03-28T08:51:33.854Z,83.50
2018-03-28T08:53:59.847Z,83.40
2018-03-28T08:56:25.835Z,82.90
2018-03-28T08:58:51.809Z,82.30
2018-03-28T09:01:18.557Z,81.30
2018-03-28T09:03:45.304Z,81.10
2018-03-28T09:06:12.048Z,80.90
2018-03-28T09:08:38.178Z,80.80
2018-03-28T09:11:04.141Z,80.50
2018-03-28T09:13:30.864Z,80.00
2018-03-28T09:15:56.840Z,80.00
2018-03-28T09:18:23.697Z,79.60
2018-03-28T09:20:49.661Z,79.60
2018-03-28T09:23:15.837Z,79.10
2018-03-28T09:25:41.814Z,79.60
2018-03-28T09:28:07.778Z,79.90
2018-03-28T09:30:33.777Z,79.10
2018-03-28T09:32:59.737Z,78.20
2018-03-28T09:35:25.730Z,77.90
2018-03-28T09:37:52.486Z,78.40
2018-03-28T09:40:19.220Z,78.00
2018-03-28T09:42:45.214Z,78.00
2018-03-28T09:45:11.219Z,78.10
2018-03-28T09:47:37.924Z,78.30
2018-03-28T09:50:03.884Z,78.20
2018-03-28T09:52:29.883Z,78.50
2018-03-28T09:54:55.848Z,79.00
2018-03-28T09:57:21.837Z,78.20
2018-03-28T09:59:47.985Z,78.20
2018-03-28T10:02:13.977Z,78.40
2018-03-28T10:04:46.938Z,77.50
2018-03-28T10:07:12.953Z,77.40
2018-03-28T10:09:38.928Z,77.30
2018-03-28T10:12:04.949Z,76.90
2018-03-28T10:14:30.975Z,76.20
2018-03-28T10:16:56.956Z,75.90
2018-03-28T10:19:23.701Z,75.00
2018-03-28T10:21:49.683Z,74.80
2018-03-28T10:24:15.693Z,75.50
2018-03-28T10:26:42.397Z,74.80
2018-03-28T10:29:08.393Z,74.90
2018-03-28T10:31:34.371Z,74.90
2018-03-28T10:34:00.342Z,74.40
2018-03-28T10:36:27.078Z,72.80
2018-03-28T10:38:53.057Z,72.70
2018-03-28T10:41:19.057Z,70.60
2018-03-28T10:43:45.109Z,68.70
2018-03-28T10:46:11.824Z,64.00
2018-03-28T10:48:37.885Z,63.90
2018-03-28T10:51:03.797Z,63.70
2018-03-28T10:53:29.755Z,62.40
2018-03-28T10:55:55.709Z,63.20
2018-03-28T10:58:22.607Z,63.60
2018-03-28T11:00:48.597Z,63.50
2018-03-28T11:03:14.593Z,63.80
2018-03-28T11:05:40.581Z,64.50
2018-03-28T11:08:06.537Z,65.00
2018-03-28T11:10:32.509Z,64.50
2018-03-28T11:12:58.516Z,65.10
2018-03-28T11:15:24.524Z,65.00
2018-03-28T11:17:50.561Z,64.60
2018-03-28T11:20:16.758Z,64.70
2018-03-28T11:22:42.737Z,63.90
2018-03-28T11:25:08.750Z,63.40
2018-03-28T11:27:35.689Z,60.10
2018-03-28T11:30:01.668Z,60.00
2018-03-28T11:32:27.660Z,58.90
2018-03-28T11:34:53.693Z,58.30
2018-03-28T11:37:19.726Z,56.00
2018-03-28T11:39:45.791Z,55.60
2018-03-28T11:42:12.852Z,54.90
2018-03-28T11:44:39.584Z,55.60
2018-03-28T11:47:05.569Z,55.60
2018-03-28T11:49:31.602Z,55.70
2018-03-28T11:51:57.582Z,56.00
2018-03-28T11:54:23.568Z,55.60
2018-03-28T11:56:49.623Z,54.40
2018-03-28T11:59:15.666Z,54.20
2018-03-28T12:01:41.633Z,54.20
2018-03-28T12:04:07.769Z,53.50
2018-03-28T12:06:33.793Z,52.90
2018-03-28T12:08:59.766Z,53.00
2018-03-28T12:11:26.504Z,52.40
2018-03-28T12:13:52.502Z,52.40
2018-03-28T12:16:18.485Z,53.30
2018-03-28T12:18:44.718Z,53.10
2018-03-28T12:21:10.678Z,52.30
2018-03-28T12:23:37.380Z,52.80
2018-03-28T12:26:03.430Z,52.70
2018-03-28T12:28:29.423Z,52.70
2018-03-28T12:30:55.484Z,53.50
2018-03-28T12:33:21.555Z,53.70
2018-03-28T12:35:47.587Z,53.60
2018-03-28T12:38:13.545Z,54.80
2018-03-28T12:40:40.276Z,55.40
2018-03-28T12:43:06.233Z,55.20
2018-03-28T12:45:32.940Z,58.10
2018-03-28T12:47:58.960Z,58.10
2018-03-28T12:50:24.936Z,58.70
2018-03-28T12:52:50.991Z,60.00
2018-03-28T12:55:17.036Z,61.30
2018-03-28T12:57:43.037Z,61.70
2018-03-28T13:00:09.029Z,61.90
2018-03-28T13:02:35.031Z,63.00
2018-03-28T13:05:01.001Z,64.00
2018-03-28T13:07:27.020Z,64.60
2018-03-28T13:09:53.307Z,64.60
2018-03-28T13:12:19.331Z,65.00
2018-03-28T13:14:45.384Z,65.60
2018-03-28T13:17:11.441Z,67.00
2018-03-28T13:19:37.421Z,66.90
2018-03-28T13:22:03.399Z,68.90
2018-03-28T13:24:29.442Z,70.00
2018-03-28T13:26:55.422Z,70.60
2018-03-28T13:29:21.421Z,70.70
2018-03-28T13:31:47.427Z,70.80
2018-03-28T13:34:13.421Z,71.50
2018-03-28T13:36:40.147Z,73.60
2018-03-28T13:39:06.278Z,73.60
2018-03-28T13:41:32.254Z,72.60
2018-03-28T13:43:58.231Z,73.20
2018-03-28T13:46:24.389Z,73.40
2018-03-28T13:48:50.402Z,73.10
2018-03-28T13:51:16.464Z,73.80
2018-03-28T13:53:42.460Z,74.10
2018-03-28T13:56:08.422Z,73.90
2018-03-28T13:58:34.377Z,74.90
2018-03-28T14:01:00.860Z,75.10
2018-03-28T14:03:26.837Z,76.40
2018-03-28T14:05:52.882Z,77.50
2018-03-28T14:08:18.942Z,77.30
2018-03-28T14:10:44.950Z,77.70
2018-03-28T14:13:10.928Z,78.80
2018-03-28T14:15:37.672Z,78.80
2018-03-28T14:18:04.408Z,79.80
2018-03-28T14:20:31.296Z,79.30
2018-03-28T14:22:58.184Z,78.70
2018-03-28T14:25:24.197Z,78.70
2018-03-28T14:27:50.203Z,80.30
2018-03-28T14:30:16.309Z,79.90
2018-03-28T14:32:42.298Z,80.20
2018-03-28T14:35:09.024Z,83.00
2018-03-28T14:37:35.779Z,85.70
2018-03-28T14:40:01.837Z,85.60
2018-03-28T14:42:27.798Z,84.60
2018-03-28T14:44:53.841Z,84.90
2018-03-28T14:47:19.852Z,87.90
2018-03-28T14:49:46.637Z,88.80
2018-03-28T14:52:12.645Z,88.70
2018-03-28T14:54:39.356Z,88.40
2018-03-28T14:57:05.368Z,88.30
2018-03-28T14:59:31.549Z,92.00
2018-03-28T15:01:57.509Z,90.20
2018-03-28T15:04:24.255Z,88.30
2018-03-28T15:06:51.013Z,89.00
2018-03-28T15:09:17.822Z,89.20
2018-03-28T15:11:43.813Z,89.20
2018-03-28T15:14:10.578Z,90.40
2018-03-28T15:16:36.577Z,90.40
2018-03-28T15:19:02.536Z,90.40
2018-03-28T15:21:29.434Z,90.00
2018-03-28T15:23:55.413Z,90.00
2018-03-28T15:26:22.193Z,92.00
2018-03-28T15:28:48.266Z,92.00
2018-03-28T15:31:14.253Z,91.40
2018-03-28T15:33:40.953Z,93.40
2018-03-28T15:36:07.107Z,93.40
2018-03-28T15:38:33.068Z,93.30
2018-03-28T15:40:59.045Z,92.80
2018-03-28T15:43:25.387Z,92.60
2018-03-28T15:45:51.421Z,92.20
2018-03-28T15:48:17.436Z,91.90
2018-03-28T15:50:44.199Z,93.00
2018-03-28T15:53:10.209Z,93.00
2018-03-28T15:55:36.181Z,92.00
2018-03-28T15:58:02.214Z,91.60
2018-03-28T16:00:28.209Z,91.70
2018-03-28T16:02:54.927Z,92.10
2018-03-28T16:05:21.116Z,92.00
2018-03-28T16:07:47.926Z,92.20
2018-03-28T16:10:14.106Z,92.20
2018-03-28T16:12:40.914Z,93.20
2018-03-28T16:15:06.873Z,93.20
2018-03-28T16:17:33.610Z,94.30
2018-03-28T16:19:59.702Z,94.30
2018-03-28T16:22:26.424Z,94.40
2018-03-28T16:24:52.421Z,94.30
2018-03-28T16:27:18.460Z,94.60
2018-03-28T16:29:44.531Z,94.40
2018-03-28T16:32:10.510Z,95.00
2018-03-28T16:34:39.371Z,95.20
2018-03-28T16:37:06.093Z,95.80
2018-03-28T16:39:32.077Z,95.70
2018-03-28T16:41:58.876Z,95.00
2018-03-28T16:44:24.873Z,95.00
2018-03-28T16:46:51.601Z,93.30
2018-03-28T16:49:17.782Z,93.30
2018-03-28T16:51:43.766Z,93.60
2018-03-28T16:54:09.751Z,94.70
2018-03-28T16:56:35.774Z,94.70
2018-03-28T16:59:01.753Z,95.20
2018-03-28T17:01:27.765Z,95.40
2018-03-28T17:03:53.780Z,95.00
2018-03-28T17:06:20.593Z,95.30
2018-03-28T17:08:46.601Z,95.30
2018-03-28T17:11:12.752Z,94.60
2018-03-28T17:13:38.734Z,94.10
2018-03-28T17:16:05.493Z,94.80
2018-03-28T17:18:32.438Z,95.20
2018-03-28T17:20:58.404Z,95.20
2018-03-28T17:23:24.444Z,94.70
2018-03-28T17:25:50.498Z,94.50
2018-03-28T17:28:16.516Z,94.00
2018-03-28T17:30:42.516Z,93.80
2018-03-28T17:33:08.539Z,93.70
2018-03-28T17:35:35.288Z,94.20
2018-03-28T17:38:01.282Z,94.20
2018-03-28T17:40:27.318Z,94.00
2018-03-28T17:42:53.372Z,94.10
2018-03-28T17:45:19.311Z,94.20
2018-03-28T17:47:45.412Z,93.90
2018-03-28T17:50:12.136Z,93.80
2018-03-28T17:52:38.101Z,93.80
2018-03-28T17:55:04.852Z,93.80
2018-03-28T17:57:31.624Z,94.80
2018-03-28T17:59:57.619Z,94.80
2018-03-28T18:02:23.718Z,94.80
2018-03-28T18:04:49.729Z,94.90
2018-03-28T18:07:15.746Z,95.70
2018-03-28T18:09:42.477Z,96.70
2018-03-28T18:12:08.606Z,96.70
2018-03-28T18:14:34.591Z,96.90
2018-03-28T18:17:01.377Z,96.70
2018-03-28T18:19:27.356Z,96.70
2018-03-28T18:21:53.365Z,96.80
2018-03-28T18:24:19.419Z,97.20
2018-03-28T18:26:45.448Z,96.90
2018-03-28T18:29:11.461Z,97.00
2018-03-28T18:31:37.490Z,97.00
2018-03-28T18:34:03.481Z,97.00
2018-03-28T18:36:30.227Z,97.60
2018-03-28T18:38:56.229Z,97.60
2018-03-28T18:41:22.255Z,97.60
2018-03-28T18:43:48.236Z,97.60
2018-03-28T18:46:14.290Z,97.30
2018-03-28T18:48:41.003Z,97.20
2018-03-28T18:51:06.997Z,97.20
2018-03-28T18:53:33.064Z,97.30
2018-03-28T18:55:59.045Z,97.30
2018-03-28T18:58:25.779Z,97.70
2018-03-28T19:00:52.536Z,97.70
2018-03-28T19:03:19.422Z,97.60
2018-03-28T19:05:45.480Z,97.60
2018-03-28T19:08:11.480Z,97.60
2018-03-28T19:10:38.270Z,98.00
2018-03-28T19:13:04.261Z,97.90
2018-03-28T19:15:30.276Z,98.10
2018-03-28T19:17:56.242Z,98.30
2018-03-28T19:20:22.962Z,98.70
2018-03-28T19:22:49.081Z,98.70
2018-03-28T19:25:15.160Z,99.10
2018-03-28T19:27:41.156Z,99.00
2018-03-28T19:30:07.120Z,99.10
2018-03-28T19:32:33.087Z,99.00
2018-03-28T19:34:59.791Z,99.00
2018-03-28T19:37:25.949Z,99.00
2018-03-28T19:39:51.922Z,99.10
2018-03-28T19:42:18.661Z,98.80
2018-03-28T19:44:45.415Z,98.80
2018-03-28T19:47:12.105Z,98.90
2018-03-28T19:49:38.066Z,98.80
2018-03-28T19:52:04.048Z,98.90
2018-03-28T19:54:30.776Z,99.30
2018-03-28T19:56:56.744Z,99.20
2018-03-28T19:59:22.740Z,99.20
2018-03-28T20:01:48.756Z,99.50
2018-03-28T20:04:14.925Z,99.40
2018-03-28T20:06:41.681Z,99.00
2018-03-28T20:09:07.654Z,99.00
2018-03-28T20:11:33.609Z,98.40
2018-03-28T20:13:59.790Z,96.90
2018-03-28T20:16:25.769Z,95.90
2018-03-28T20:18:51.858Z,93.70
2018-03-28T20:21:18.817Z,93.30
2018-03-28T20:23:45.032Z,93.20
2018-03-28T20:26:11.004Z,93.90
2018-03-28T20:28:37.756Z,92.70
2018-03-28T20:31:03.727Z,92.30
2018-03-28T20:33:29.681Z,91.60
2018-03-28T20:35:55.844Z,90.80
2018-03-28T20:38:21.821Z,90.50
2018-03-28T20:40:47.801Z,90.20
2018-03-28T20:43:13.955Z,90.00
2018-03-28T20:45:39.922Z,90.10
2018-03-28T20:48:06.622Z,90.40
2018-03-28T20:50:32.612Z,90.40
2018-03-28T20:52:59.326Z,91.20
2018-03-28T20:55:25.395Z,91.20
2018-03-28T20:57:52.129Z,90.80
2018-03-28T21:00:18.922Z,90.80
2018-03-28T21:02:44.909Z,90.80
2018-03-28T21:05:11.045Z,91.20
2018-03-28T21:07:37.018Z,90.70
2018-03-28T21:10:03.767Z,89.10
2018-03-28T21:12:30.603Z,88.50
2018-03-28T21:14:56.557Z,88.50
2018-03-28T21:17:23.263Z,87.10
2018-03-28T21:19:49.361Z,87.00
2018-03-28T21:22:15.402Z,87.20
2018-03-28T21:24:41.395Z,86.40
2018-03-28T21:27:08.549Z,88.20
2018-03-28T21:29:34.519Z,88.20
2018-03-28T21:32:00.510Z,88.60
2018-03-28T21:34:26.481Z,89.90
2018-03-28T21:36:53.366Z,89.10
2018-03-28T21:39:19.344Z,89.10
2018-03-28T21:41:45.547Z,88.30
2018-03-28T21:44:11.537Z,88.70
2018-03-28T21:46:37.553Z,86.80
2018-03-28T21:49:03.549Z,85.60
2018-03-28T21:51:29.565Z,85.80
2018-03-28T21:53:56.281Z,85.00
2018-03-28T21:56:22.273Z,85.00
2018-03-28T21:58:48.245Z,85.00
2018-03-28T22:01:14.256Z,84.10
2018-03-28T22:03:40.261Z,84.20
2018-03-28T22:06:06.959Z,84.90
2018-03-28T22:08:32.919Z,84.80
2018-03-28T22:10:58.885Z,84.90
2018-03-28T22:13:25.597Z,83.70
2018-03-28T22:15:51.569Z,83.60
2018-03-28T22:18:18.317Z,83.60
2018-03-28T22:20:45.050Z,83.60
2018-03-28T22:23:11.010Z,83.60
2018-03-28T22:25:37.945Z,84.10
2018-03-28T22:28:03.910Z,84.00
2018-03-28T22:30:30.615Z,82.70
2018-03-28T22:32:56.637Z,82.60
2018-03-28T22:35:22.597Z,82.40
2018-03-28T22:37:48.562Z,83.20
2018-03-28T22:40:15.303Z,83.50
2018-03-28T22:42:41.281Z,83.40
2018-03-28T22:45:07.241Z,83.50
2018-03-28T22:47:33.266Z,83.70
2018-03-28T22:49:59.229Z,84.70
2018-03-28T22:52:25.189Z,84.20
2018-03-28T22:54:51.913Z,84.30
2018-03-28T22:57:17.933Z,84.20
2018-03-28T22:59:43.865Z,83.80
2018-03-28T23:02:09.837Z,84.20
2018-03-28T23:04:35.820Z,84.50
2018-03-28T23:07:01.778Z,84.20
2018-03-28T23:09:27.781Z,84.50
2018-03-28T23:11:53.742Z,83.40
2018-03-28T23:14:19.744Z,83.00
2018-03-28T23:16:45.950Z,87.50
2018-03-28T23:19:12.664Z,86.20
2018-03-28T23:21:38.632Z,86.00
2018-03-28T23:24:04.661Z,83.00
2018-03-28T23:26:30.846Z,81.90
2018-03-28T23:28:56.813Z,79.30
2018-03-28T23:31:22.972Z,78.60
2018-03-28T23:33:49.017Z,78.10
2018-03-28T23:36:15.005Z,76.80
2018-03-28T23:38:40.993Z,77.30
2018-03-28T23:41:06.972Z,76.20
2018-03-28T23:43:32.937Z,77.50
2018-03-28T23:45:58.911Z,77.30
2018-03-28T23:48:25.610Z,78.80
2018-03-28T23:50:51.826Z,78.70
2018-03-28T23:53:17.821Z,78.80
2018-03-28T23:55:43.789Z,78.60
2018-03-28T23:58:09.780Z,77.50
